createdAt,value
2018-10-16T00:00:33.784Z,19.77
2018-10-16T00:03:38.336Z,21.33
2018-10-16T00:06:42.905Z,19.70
2018-10-16T00:09:47.563Z,20.43
2018-10-16T00:12:52.145Z,22.23
2018-10-16T00:15:56.717Z,19.47
2018-10-16T00:19:01.284Z,18.43
2018-10-16T00:22:05.903Z,18.47
2018-10-16T00:25:15.748Z,22.30
2018-10-16T00:28:20.302Z,17.87
2018-10-16T00:31:24.808Z,21.20
2018-10-16T00:34:29.356Z,23.20
2018-10-16T00:37:33.923Z,18.13
2018-10-16T00:40:38.485Z,21.77
2018-10-16T00:43:43.021Z,20.73
2018-10-16T00:46:47.622Z,21.47
2018-10-16T00:49:52.370Z,23.43
2018-10-16T00:52:56.973Z,17.33
2018-10-16T00:56:01.586Z,17.63
2018-10-16T00:59:06.309Z,17.23
2018-10-16T01:02:11.496Z,17.23
2018-10-16T01:05:16.095Z,19.03
2018-10-16T01:08:20.803Z,21.27
2018-10-16T01:11:25.700Z,15.97
2018-10-16T01:14:30.381Z,17.37
2018-10-16T01:17:34.941Z,17.37
2018-10-16T01:20:39.603Z,24.43
2018-10-16T01:23:44.196Z,17.80
2018-10-16T01:26:48.780Z,16.30
2018-10-16T01:29:53.522Z,17.30
2018-10-16T01:32:58.242Z,18.23
2018-10-16T01:36:02.851Z,16.67
2018-10-16T01:39:07.913Z,19.10
2018-10-16T01:42:12.467Z,20.73
2018-10-16T01:45:17.002Z,20.37
2018-10-16T01:48:21.794Z,19.43
2018-10-16T01:51:26.491Z,19.60
2018-10-16T01:54:31.113Z,21.07
2018-10-16T01:57:35.753Z,16.10
2018-10-16T02:00:40.448Z,16.37
2018-10-16T02:03:45.022Z,17.10
2018-10-16T02:06:49.694Z,21.80
2018-10-16T02:09:54.293Z,19.07
2018-10-16T02:12:59.062Z,21.23
2018-10-16T02:16:03.666Z,23.87
2018-10-16T02:19:08.290Z,19.23
2018-10-16T02:22:12.984Z,19.20
2018-10-16T02:25:17.540Z,20.60
2018-10-16T02:28:22.191Z,17.03
2018-10-16T02:31:27.128Z,18.10
2018-10-16T02:34:31.720Z,16.90
2018-10-16T02:37:36.512Z,16.97
2018-10-16T02:40:41.041Z,18.47
2018-10-16T02:43:45.665Z,19.20
2018-10-16T02:46:50.280Z,18.13
2018-10-16T02:49:54.912Z,18.90
2018-10-16T02:52:59.556Z,20.40
2018-10-16T02:56:04.225Z,25.10
2018-10-16T02:59:08.805Z,17.70
2018-10-16T03:02:13.479Z,20.30
2018-10-16T03:05:18.052Z,19.37
2018-10-16T03:08:22.613Z,17.83
2018-10-16T03:11:27.174Z,17.40
2018-10-16T03:14:31.953Z,23.17
2018-10-16T03:17:36.523Z,20.47
2018-10-16T03:20:41.305Z,22.40
2018-10-16T03:23:46.014Z,17.57
2018-10-16T03:26:50.566Z,18.67
2018-10-16T03:29:55.183Z,20.67
2018-10-16T03:33:00.380Z,21.77
2018-10-16T03:36:05.300Z,18.40
2018-10-16T03:39:11.863Z,17.73
2018-10-16T03:42:16.481Z,18.93
2018-10-16T03:45:21.176Z,21.50
2018-10-16T03:48:25.827Z,20.50
2018-10-16T03:51:30.409Z,19.03
2018-10-16T03:54:34.951Z,19.07
2018-10-16T03:57:39.515Z,19.20
2018-10-16T04:00:44.097Z,20.97
2018-10-16T04:03:49.052Z,18.17
2018-10-16T04:06:53.776Z,15.23
2018-10-16T04:09:58.405Z,15.63
2018-10-16T04:13:03.361Z,19.10
2018-10-16T04:16:08.401Z,17.37
2018-10-16T04:19:13.427Z,19.60
2018-10-16T04:22:18.222Z,17.57
2018-10-16T04:25:22.677Z,14.27
2018-10-16T04:28:27.324Z,19.00
2018-10-16T04:31:31.978Z,22.93
2018-10-16T04:34:36.646Z,21.63
2018-10-16T04:37:41.560Z,26.10
2018-10-16T04:40:46.175Z,26.20
2018-10-16T04:43:50.831Z,25.17
2018-10-16T04:46:55.355Z,22.77
2018-10-16T04:49:59.912Z,22.60
2018-10-16T04:53:05.049Z,25.50
2018-10-16T04:56:09.795Z,24.47
2018-10-16T04:59:14.474Z,26.57
2018-10-16T05:02:19.258Z,23.13
2018-10-16T05:05:24.828Z,21.20
2018-10-16T05:08:29.415Z,20.53
2018-10-16T05:11:34.791Z,19.03
2018-10-16T05:14:40.052Z,21.10
2018-10-16T05:17:44.672Z,23.33
2018-10-16T05:20:49.342Z,19.10
2018-10-16T05:23:55.056Z,21.20
2018-10-16T05:26:59.634Z,17.23
2018-10-16T05:30:04.334Z,19.73
2018-10-16T05:33:08.942Z,19.93
2018-10-16T05:36:13.591Z,21.90
2018-10-16T05:39:18.692Z,20.30
2018-10-16T05:42:23.324Z,27.47
2018-10-16T05:45:29.453Z,32.40
2018-10-16T05:48:34.023Z,36.83
2018-10-16T05:51:43.741Z,35.13
2018-10-16T05:54:48.400Z,24.10
2018-10-16T05:57:53.204Z,19.17
2018-10-16T06:00:57.790Z,21.43
2018-10-16T06:04:02.493Z,26.30
2018-10-16T06:07:07.206Z,26.73
2018-10-16T06:10:11.852Z,21.30
2018-10-16T06:13:16.503Z,16.77
2018-10-16T06:16:21.072Z,18.67
2018-10-16T06:19:25.717Z,19.50
2018-10-16T06:22:30.301Z,20.80
2018-10-16T06:25:34.858Z,18.10
2018-10-16T06:28:39.683Z,15.33
2018-10-16T06:31:44.265Z,19.33
2018-10-16T06:34:49.113Z,19.07
2018-10-16T06:37:53.729Z,20.87
2018-10-16T06:40:58.610Z,17.10
2018-10-16T06:44:03.204Z,18.80
2018-10-16T06:47:08.077Z,20.50
2018-10-16T06:50:12.799Z,17.10
2018-10-16T06:53:17.405Z,18.60
2018-10-16T06:56:22.049Z,16.13
2018-10-16T06:59:27.177Z,17.80
2018-10-16T07:02:31.780Z,14.13
2018-10-16T07:05:36.432Z,15.23
2018-10-16T07:08:41.027Z,14.40
2018-10-16T07:11:45.725Z,12.67
2018-10-16T07:14:50.517Z,14.57
2018-10-16T07:17:55.173Z,15.40
2018-10-16T07:21:00.003Z,12.23
2018-10-16T07:24:05.097Z,13.80
2018-10-16T07:27:09.765Z,15.97
2018-10-16T07:30:16.206Z,12.70
2018-10-16T07:33:20.700Z,13.27
2018-10-16T07:36:25.576Z,18.43
2018-10-16T07:39:30.206Z,15.07
2018-10-16T07:42:34.905Z,18.00
2018-10-16T07:45:39.595Z,16.43
2018-10-16T07:48:44.262Z,16.60
2018-10-16T07:51:48.850Z,15.37
2018-10-16T07:54:53.448Z,18.53
2018-10-16T07:57:58.050Z,15.30
2018-10-16T08:01:02.939Z,16.60
2018-10-16T08:04:08.038Z,18.27
2018-10-16T08:07:12.663Z,16.00
2018-10-16T08:10:17.381Z,24.73
2018-10-16T08:13:22.058Z,15.97
2018-10-16T08:16:26.647Z,18.10
2018-10-16T08:19:31.293Z,16.57
2018-10-16T08:22:35.941Z,18.77
2018-10-16T08:25:40.539Z,21.63
2018-10-16T08:28:45.214Z,16.47
2018-10-16T08:31:49.928Z,19.30
2018-10-16T08:34:54.537Z,18.70
2018-10-16T08:40:10.013Z,19.90
2018-10-16T08:43:39.153Z,18.33
2018-10-16T08:47:00.409Z,16.33
2018-10-16T08:50:22.799Z,17.63
2018-10-16T08:53:27.530Z,17.23
2018-10-16T08:56:32.497Z,18.33
2018-10-16T08:59:37.266Z,13.37
2018-10-16T09:02:41.860Z,17.27
2018-10-16T09:05:46.599Z,15.90
2018-10-16T09:08:51.548Z,12.53
2018-10-16T09:11:56.276Z,15.93
2018-10-16T09:15:00.940Z,16.77
2018-10-16T09:18:05.561Z,18.03
2018-10-16T09:21:10.248Z,16.63
2018-10-16T09:24:14.943Z,15.73
2018-10-16T09:27:19.601Z,15.27
2018-10-16T09:30:24.228Z,11.63
2018-10-16T09:33:28.856Z,16.37
2018-10-16T09:36:33.616Z,13.77
2018-10-16T09:39:38.434Z,12.03
2018-10-16T09:42:42.995Z,11.87
2018-10-16T09:45:47.703Z,13.93
2018-10-16T09:48:52.322Z,16.77
2018-10-16T09:51:56.979Z,14.90
2018-10-16T09:55:01.666Z,12.40
2018-10-16T09:58:06.449Z,12.20
2018-10-16T10:01:16.149Z,14.03
2018-10-16T10:04:20.684Z,15.40
2018-10-16T10:07:25.253Z,11.00
2018-10-16T10:10:29.945Z,11.47
2018-10-16T10:13:34.499Z,12.90
2018-10-16T10:16:39.436Z,12.60
2018-10-16T10:19:44.060Z,10.53
2018-10-16T10:22:48.940Z,10.07
2018-10-16T10:25:53.541Z,20.63
2018-10-16T10:28:58.690Z,13.30
2018-10-16T10:32:03.362Z,11.53
2018-10-16T10:35:10.268Z,12.40
2018-10-16T10:38:14.907Z,14.03
2018-10-16T10:41:19.448Z,11.57
2018-10-16T10:44:24.089Z,9.03
2018-10-16T10:47:28.690Z,10.40
2018-10-16T10:50:33.519Z,8.73
2018-10-16T10:53:37.998Z,9.30
2018-10-16T10:56:42.669Z,13.40
2018-10-16T10:59:47.191Z,10.57
2018-10-16T11:02:51.821Z,11.53
2018-10-16T11:05:56.411Z,9.70
2018-10-16T11:09:01.343Z,13.53
2018-10-16T11:12:06.152Z,8.67
2018-10-16T11:15:10.805Z,9.30
2018-10-16T11:18:15.395Z,8.30
2018-10-16T11:21:19.945Z,10.50
2018-10-16T11:24:24.654Z,8.10
2018-10-16T11:27:29.289Z,10.90
2018-10-16T11:30:33.853Z,8.03
2018-10-16T11:33:38.631Z,10.77
2018-10-16T11:36:43.193Z,8.27
2018-10-16T11:39:47.817Z,10.67
2018-10-16T11:42:52.568Z,9.27
2018-10-16T11:45:57.138Z,14.33
2018-10-16T11:49:01.746Z,8.67
2018-10-16T11:52:07.044Z,8.80
2018-10-16T11:55:11.809Z,11.33
2018-10-16T11:58:16.398Z,8.63
2018-10-16T12:01:21.544Z,7.20
2018-10-16T12:04:26.501Z,6.50
2018-10-16T12:07:31.101Z,10.47
2018-10-16T12:10:35.807Z,7.50
2018-10-16T12:13:40.350Z,6.67
2018-10-16T12:17:05.383Z,8.97
2018-10-16T12:20:16.725Z,6.50
2018-10-16T12:23:21.339Z,6.93
2018-10-16T12:26:26.000Z,9.23
2018-10-16T12:29:30.616Z,6.57
2018-10-16T12:32:35.263Z,8.67
2018-10-16T12:35:39.786Z,8.47
2018-10-16T12:38:44.486Z,8.00
2018-10-16T12:41:49.273Z,9.27
2018-10-16T12:44:53.728Z,6.00
2018-10-16T12:47:58.314Z,6.37
2018-10-16T12:51:02.939Z,8.70
2018-10-16T12:54:07.796Z,5.27
2018-10-16T12:57:12.522Z,5.53
2018-10-16T13:00:17.196Z,7.90
2018-10-16T13:03:21.814Z,6.87
2018-10-16T13:06:26.443Z,5.40
2018-10-16T13:09:31.147Z,7.33
2018-10-16T13:12:36.025Z,6.40
2018-10-16T13:15:40.571Z,6.83
2018-10-16T13:18:45.256Z,7.53
2018-10-16T13:21:49.859Z,5.43
2018-10-16T13:24:54.503Z,6.77
2018-10-16T13:27:59.553Z,10.13
2018-10-16T13:31:04.153Z,11.43
2018-10-16T13:34:08.836Z,6.10
2018-10-16T13:37:13.380Z,5.80
2018-10-16T13:40:18.294Z,5.57
2018-10-16T13:43:22.875Z,4.80
2018-10-16T13:46:27.841Z,5.57
2018-10-16T13:49:32.455Z,7.13
2018-10-16T13:52:37.081Z,4.77
2018-10-16T13:55:41.713Z,4.53
2018-10-16T13:58:46.340Z,5.47
2018-10-16T14:01:50.923Z,4.60
2018-10-16T14:04:55.634Z,4.97
2018-10-16T14:08:00.270Z,4.60
2018-10-16T14:11:05.026Z,6.00
2018-10-16T14:14:09.759Z,4.40
2018-10-16T14:17:14.422Z,4.67
2018-10-16T14:20:19.105Z,4.77
2018-10-16T14:23:23.719Z,5.63
2018-10-16T14:26:28.381Z,5.93
2018-10-16T14:29:33.182Z,5.77
2018-10-16T14:32:37.756Z,4.90
2018-10-16T14:35:42.480Z,4.53
2018-10-16T14:38:47.093Z,5.13
2018-10-16T14:41:51.784Z,7.57
2018-10-16T14:44:56.487Z,7.03
2018-10-16T14:48:01.081Z,5.20
2018-10-16T14:51:05.849Z,6.00
2018-10-16T14:54:10.568Z,6.63
2018-10-16T14:57:15.143Z,6.47
2018-10-16T15:00:19.908Z,5.00
2018-10-16T15:03:24.474Z,6.00
2018-10-16T15:06:29.152Z,5.83
2018-10-16T15:09:33.686Z,6.17
2018-10-16T15:12:38.290Z,5.40
2018-10-16T15:15:43.449Z,6.70
2018-10-16T15:18:48.113Z,6.30
2018-10-16T15:21:52.910Z,7.17
2018-10-16T15:24:57.476Z,6.10
2018-10-16T15:28:02.313Z,7.00
2018-10-16T15:31:06.952Z,6.40
2018-10-16T15:34:11.602Z,6.97
2018-10-16T15:37:16.910Z,6.40
2018-10-16T15:40:21.573Z,8.97
2018-10-16T15:43:26.390Z,6.90
2018-10-16T15:46:30.996Z,7.97
2018-10-16T15:49:35.921Z,7.43
2018-10-16T15:52:40.873Z,9.10
2018-10-16T15:55:45.530Z,7.83
2018-10-16T15:58:50.124Z,9.57
2018-10-16T16:01:54.892Z,11.70
2018-10-16T16:04:59.512Z,6.80
2018-10-16T16:08:04.470Z,7.00
2018-10-16T16:11:09.088Z,6.80
2018-10-16T16:14:13.925Z,7.07
2018-10-16T16:17:18.375Z,6.13
2018-10-16T16:20:23.069Z,8.67
2018-10-16T16:23:27.700Z,10.17
2018-10-16T16:26:32.517Z,8.23
2018-10-16T16:29:37.651Z,7.03
2018-10-16T16:32:42.308Z,6.50
2018-10-16T16:35:47.051Z,8.97
2018-10-16T16:38:51.592Z,9.57
2018-10-16T16:41:56.329Z,8.13
2018-10-16T16:45:00.988Z,11.37
2018-10-16T16:48:05.637Z,9.70
2018-10-16T16:51:10.448Z,8.27
2018-10-16T16:54:15.103Z,7.43
2018-10-16T16:57:19.734Z,8.30
2018-10-16T17:00:24.320Z,8.50
2018-10-16T17:03:29.058Z,8.97
2018-10-16T17:06:33.677Z,11.23
2018-10-16T17:09:38.280Z,9.50
2018-10-16T17:12:42.944Z,7.43
2018-10-16T17:15:47.585Z,7.87
2018-10-16T17:18:53.845Z,7.43
2018-10-16T17:21:58.481Z,7.03
2018-10-16T17:25:03.437Z,8.43
2018-10-16T17:28:07.999Z,13.73
2018-10-16T17:31:12.820Z,10.07
2018-10-16T17:34:17.985Z,12.87
2018-10-16T17:37:22.610Z,10.37
2018-10-16T17:40:27.230Z,11.90
2018-10-16T17:43:31.879Z,9.63
2018-10-16T17:46:36.698Z,11.57
2018-10-16T17:49:41.353Z,11.53
2018-10-16T17:52:46.102Z,15.07
2018-10-16T17:55:50.803Z,9.53
2018-10-16T17:58:55.461Z,12.30
2018-10-16T18:02:00.180Z,12.90
2018-10-16T18:05:04.961Z,12.47
2018-10-16T18:08:09.654Z,14.43
2018-10-16T18:11:14.322Z,11.53
2018-10-16T18:14:19.215Z,11.43
2018-10-16T18:17:24.036Z,13.87
2018-10-16T18:20:28.832Z,11.23
2018-10-16T18:23:33.711Z,12.07
2018-10-16T18:26:38.598Z,15.30
2018-10-16T18:29:44.302Z,15.97
2018-10-16T18:32:48.997Z,19.83
2018-10-16T18:35:53.681Z,23.30
2018-10-16T18:38:58.401Z,17.57
2018-10-16T18:42:03.067Z,17.67
2018-10-16T18:45:09.377Z,13.03
2018-10-16T18:48:14.029Z,11.40
2018-10-16T18:51:18.725Z,14.53
2018-10-16T18:54:23.831Z,11.63
2018-10-16T18:57:28.595Z,11.10
2018-10-16T19:00:33.342Z,12.90
2018-10-16T19:03:38.037Z,11.80
2018-10-16T19:06:42.914Z,11.43
2018-10-16T19:09:47.592Z,14.63
2018-10-16T19:12:52.239Z,10.40
2018-10-16T19:15:57.016Z,11.93
2018-10-16T19:19:01.712Z,12.90
2018-10-16T19:22:06.604Z,15.47
2018-10-16T19:25:12.170Z,12.97
2018-10-16T19:28:17.137Z,12.73
2018-10-16T19:31:21.810Z,11.97
2018-10-16T19:34:26.564Z,14.90
2018-10-16T19:37:31.347Z,13.37
2018-10-16T19:40:35.966Z,12.43
2018-10-16T19:43:40.639Z,14.00
2018-10-16T19:46:45.230Z,12.40
2018-10-16T19:49:49.913Z,11.67
2018-10-16T19:52:54.682Z,11.67
2018-10-16T19:55:59.356Z,13.73
2018-10-16T19:59:04.000Z,16.47
2018-10-16T20:02:09.405Z,15.07
2018-10-16T20:05:14.131Z,16.80
2018-10-16T20:08:18.710Z,15.07
2018-10-16T20:11:23.383Z,14.73
2018-10-16T20:14:28.091Z,14.93
2018-10-16T20:17:32.819Z,15.93
2018-10-16T20:20:37.466Z,16.03
2018-10-16T20:23:42.155Z,19.97
2018-10-16T20:26:46.698Z,17.20
2018-10-16T20:29:51.683Z,15.13
2018-10-16T20:32:56.348Z,15.93
2018-10-16T20:36:01.004Z,14.00
2018-10-16T20:39:10.917Z,13.97
2018-10-16T20:42:15.625Z,13.50
2018-10-16T20:45:20.394Z,17.00
2018-10-16T20:48:24.995Z,13.23
2018-10-16T20:51:29.557Z,11.97
2018-10-16T20:54:34.185Z,13.27
2018-10-16T20:57:38.967Z,14.83
2018-10-16T21:00:43.942Z,15.83
2018-10-16T21:03:53.122Z,13.70
2018-10-16T21:06:57.956Z,15.30
2018-10-16T21:10:02.937Z,12.83
2018-10-16T21:13:07.683Z,17.07
2018-10-16T21:16:12.325Z,13.10
2018-10-16T21:19:16.955Z,14.03
2018-10-16T21:22:21.608Z,11.70
2018-10-16T21:25:26.292Z,12.63
2018-10-16T21:28:31.017Z,15.60
2018-10-16T21:31:35.717Z,15.60
2018-10-16T21:34:40.313Z,18.03
2018-10-16T21:37:45.167Z,19.57
2018-10-16T21:40:49.829Z,16.80
2018-10-16T21:43:54.486Z,16.43
2018-10-16T21:46:59.212Z,15.77
2018-10-16T21:50:03.862Z,15.40
2018-10-16T21:53:08.616Z,15.10
2018-10-16T21:56:13.208Z,15.47
2018-10-16T21:59:18.216Z,18.83
2018-10-16T22:02:28.049Z,17.80
2018-10-16T22:05:32.677Z,16.23
2018-10-16T22:08:37.350Z,21.50
2018-10-16T22:11:41.951Z,17.40
2018-10-16T22:14:46.606Z,17.50
2018-10-16T22:17:51.486Z,19.30
2018-10-16T22:20:56.073Z,15.10
2018-10-16T22:24:00.872Z,15.60
2018-10-16T22:27:05.844Z,18.50
2018-10-16T22:30:10.976Z,17.50
2018-10-16T22:33:15.577Z,15.77
2018-10-16T22:36:20.308Z,15.37
2018-10-16T22:39:24.986Z,15.20
2018-10-16T22:42:29.859Z,14.30
2018-10-16T22:45:34.432Z,15.10
2018-10-16T22:48:39.285Z,18.37
2018-10-16T22:51:44.059Z,16.33
2018-10-16T22:54:48.804Z,17.27
2018-10-16T22:57:53.449Z,17.40
2018-10-16T23:00:58.333Z,17.00
2018-10-16T23:04:02.984Z,16.33
2018-10-16T23:07:07.758Z,18.23
2018-10-16T23:10:12.579Z,19.13
2018-10-16T23:13:17.261Z,19.97
2018-10-16T23:16:21.976Z,24.97
2018-10-16T23:19:26.461Z,21.30
2018-10-16T23:22:31.089Z,18.73
2018-10-16T23:25:35.798Z,16.90
2018-10-16T23:28:40.498Z,18.07
2018-10-16T23:31:45.241Z,16.90
2018-10-16T23:34:49.930Z,15.97
2018-10-16T23:37:54.709Z,20.03
2018-10-16T23:40:59.396Z,18.87
2018-10-16T23:44:04.144Z,17.13
2018-10-16T23:47:09.041Z,18.53
2018-10-16T23:50:13.928Z,17.20
2018-10-16T23:53:18.606Z,20.60
2018-10-16T23:56:23.204Z,16.47
2018-10-16T23:59:27.981Z,21.13
